Lawrenceville, NJ

04:21 EDT dnia 29-wrzesień-2016 (GMT -0400)
HamiltonWeather.Net | | Change Station

Wysokość 67 ft 40.26 °N, 74.67 °W | Updated 13 seconds ago

Light Rain
lekki deszcz
59.7 ° F
Odczuwalna 59.7 ° F
Płn.
1.0
Wiatr zmienny Wiatr od PdWs
Gusts 2.0 mph

Dziś
Wysoka -- | Niska -- ° F
--% Prawdop. opadów
Wczoraj
Wysoka -- | Niska -- ° F
Precip. -- cali
Ciśnienie 30.21 cali
Widzialność 3.0 mil
chmury pochmurno 400 ft
Punkt rosy 58 ° F
Wilgotność 94%
Opady deszczu 0.02 cali
grubość pokrywy śnieżnej Niedostępne.
6:53 AM 6:43 PM
Zmniejszający się sierp Księżyca, 3% visible
METAR KTTN 290753Z AUTO 06011KT 3SM -RA BR OVC004 14/13 A3022 RMK AO2 SLP228 P0001 T01440133
Ciśnienie 30.21 cali
Widzialność 3.0 mil
chmury pochmurno 400 ft
Punkt rosy 58 ° F
Wilgotność 94%
Opady deszczu 0.02 cali
grubość pokrywy śnieżnej Niedostępne.
6:53 AM 6:43 PM
Zmniejszający się sierp Księżyca, 3% visible
METAR KTTN 290753Z AUTO 06011KT 3SM -RA BR OVC004 14/13 A3022 RMK AO2 SLP228 P0001 T01440133

10-Day Weather Forecast

Almanac

Astronomia

Sep. 29, 2016 Wschód Zachów
Aktualny czas
Zmierzch cywilny
Zmierzch żeglarski
świt/zmierzch astronomiczny
Księżyc
całkowite oświetlenie
Długość dnia
Tomorrow will be .
, % of the Moon is Illuminated

Dzisiejsze ekstrema

State Highs State Lows

Community

WunderPhotos

Upload Photos

1,942,446 zdjęcia zostały przesłane!

WunderBlog® & News

Nearby

Jakość powietrza

  Jakość powietrza czynnik AQ Zanieczyszczenie
Not available.

Głębokość pokrywy śnieżnej

Station Depth n.p.m.

Aktywność sejsmiczna

Miejscowość Distance Mag. Time & Date
Minimum magnitude displayed is 2.5.

Temperatury wody na wybrzeżu

Miejsce Temperatura

Stations

Najbliższa stacja pogodowa

Lokalizacja stacji Temp. czynnik chłodzący wiatru Punkt rosy Wilgotność Wiatr Precip. Wysokość Uaktualniono Typ
                   

Watches & Warnings

There are currently no watches in effect.